Weather at Reed Airport

Public forecast

Using degrees Fahrenheit for public forecast. Weather courtesy of forecast.io.

Closest aviation weather report (METAR) to Reed Airport

Closest report is Northern Colorado Regional Airport, 15.8 nm (29.2 km) SSW. Retrieved 2020/10/26 14:35 UTC (1 hour ago):

KFNL 261435Z 13003KT 9SM -SN BKN010 M14/M16 A3028 RMK AO2 SNB21 P0000 FZRANO

Closest aviation forecast (TAF) to Reed Airport

Closest forecast is Cheyenne Regional Jerry Olson Field, 28.1 nm (52.0 km) N. Retrieved 2020/10/26 12:22 UTC (3 hours ago):

TAF KCYS 261120Z 2612/2712 28005KT P6SM OVC060 FM261400 26007KT P6SM BKN090 FM261800 25009KT P6SM SCT150 FM270000 26009KT P6SM SKC